createdAt,value
2024-01-03T00:00:09.653Z,-3.71
2024-01-03T00:02:38.417Z,-3.72
2024-01-03T00:05:10.244Z,-3.78
2024-01-03T00:07:38.808Z,-3.81
2024-01-03T00:10:43.355Z,-3.80
2024-01-03T00:13:55.404Z,-3.84
2024-01-03T00:16:23.877Z,-3.85
2024-01-03T00:18:59.158Z,-3.83
2024-01-03T00:21:29.330Z,-3.86
2024-01-03T00:24:01.725Z,-3.89
2024-01-03T00:26:31.137Z,-3.87
2024-01-03T00:28:59.740Z,-3.92
2024-01-03T00:31:44.252Z,-3.92
2024-01-03T00:34:36.604Z,-3.91
2024-01-03T00:37:08.273Z,-3.92
2024-01-03T00:39:36.618Z,-3.92
2024-01-03T00:42:05.087Z,-3.88
2024-01-03T00:44:33.565Z,-3.87
2024-01-03T00:47:01.985Z,-3.86
2024-01-03T00:49:30.614Z,-3.82
2024-01-03T00:51:59.150Z,-3.85
2024-01-03T00:54:27.562Z,-3.85
2024-01-03T00:56:56.571Z,-3.79
2024-01-03T00:59:25.142Z,-3.77
2024-01-03T01:01:53.468Z,-3.77
2024-01-03T01:04:21.961Z,-3.73
2024-01-03T01:06:50.401Z,-3.65
2024-01-03T01:09:18.833Z,-3.66
2024-01-03T01:11:47.689Z,-3.72
2024-01-03T01:14:16.047Z,-3.79
2024-01-03T01:16:44.730Z,-3.82
2024-01-03T01:19:13.503Z,-3.86
2024-01-03T01:21:42.767Z,-3.83
2024-01-03T01:24:11.996Z,-3.83
2024-01-03T01:26:40.622Z,-3.84
2024-01-03T01:29:09.445Z,-3.87
2024-01-03T01:31:38.259Z,-3.88
2024-01-03T01:34:07.057Z,-3.89
2024-01-03T01:36:35.634Z,-3.95
2024-01-03T01:39:04.428Z,-3.96
2024-01-03T01:41:33.258Z,-3.94
2024-01-03T01:44:02.527Z,-3.96
2024-01-03T01:46:31.116Z,-3.95
2024-01-03T01:48:59.595Z,-3.93
2024-01-03T01:51:28.828Z,-3.92
2024-01-03T01:53:57.187Z,-3.94
2024-01-03T01:56:25.654Z,-3.95
2024-01-03T01:58:54.443Z,-4.00
2024-01-03T02:01:22.927Z,-4.05
2024-01-03T02:03:51.711Z,-4.07
2024-01-03T02:06:21.420Z,-4.05
2024-01-03T02:08:50.438Z,-4.03
2024-01-03T02:11:18.833Z,-4.00
2024-01-03T02:13:49.272Z,-4.02
2024-01-03T02:16:19.001Z,-4.05
2024-01-03T02:18:47.476Z,-4.04
2024-01-03T02:21:16.748Z,-4.06
2024-01-03T02:23:45.285Z,-4.11
2024-01-03T02:26:25.577Z,-4.11
2024-01-03T02:28:45.041Z,-4.08
2024-01-03T02:31:13.430Z,-4.05
2024-01-03T02:33:42.140Z,-4.03
2024-01-03T02:36:10.773Z,-4.05
2024-01-03T02:38:39.243Z,-4.07
2024-01-03T02:41:07.680Z,-4.13
2024-01-03T02:43:36.426Z,-4.13
2024-01-03T02:46:05.023Z,-4.15
2024-01-03T02:48:33.936Z,-4.13
2024-01-03T02:51:02.589Z,-4.08
2024-01-03T02:53:31.276Z,-4.04
2024-01-03T02:55:59.668Z,-4.03
2024-01-03T02:58:28.091Z,-3.99
2024-01-03T03:00:56.650Z,-3.98
2024-01-03T03:03:25.027Z,-3.97
2024-01-03T03:05:53.345Z,-3.95
2024-01-03T03:08:22.006Z,-3.89
2024-01-03T03:10:50.547Z,-3.92
2024-01-03T03:13:18.947Z,-3.93
2024-01-03T03:15:48.802Z,-3.95
2024-01-03T03:18:17.384Z,-3.96
2024-01-03T03:20:46.281Z,-3.96
2024-01-03T03:23:14.705Z,-3.99
2024-01-03T03:25:43.071Z,-3.98
2024-01-03T03:28:11.531Z,-3.95
2024-01-03T03:30:40.068Z,-3.91
2024-01-03T03:33:08.684Z,-3.95
2024-01-03T03:35:37.210Z,-3.95
2024-01-03T03:38:05.898Z,-3.94
2024-01-03T03:40:34.644Z,-3.92
2024-01-03T03:43:03.306Z,-3.91
2024-01-03T03:45:32.680Z,-3.94
2024-01-03T03:48:01.331Z,-4.00
2024-01-03T03:50:30.200Z,-4.00
2024-01-03T03:52:58.379Z,-3.98
2024-01-03T03:55:27.315Z,-3.97
2024-01-03T03:57:55.854Z,-3.99
2024-01-03T04:00:24.476Z,-4.02
2024-01-03T04:02:53.187Z,-4.05
2024-01-03T04:05:21.774Z,-4.02
2024-01-03T04:07:50.238Z,-4.08
2024-01-03T04:10:18.578Z,-4.15
2024-01-03T04:12:47.473Z,-4.10
2024-01-03T04:15:16.755Z,-4.07
2024-01-03T04:17:45.453Z,-4.06
2024-01-03T04:20:14.113Z,-4.10
2024-01-03T04:22:44.765Z,-4.07
2024-01-03T04:25:13.162Z,-4.06
2024-01-03T04:27:41.499Z,-4.05
2024-01-03T04:30:09.981Z,-4.07
2024-01-03T04:32:39.061Z,-4.05
2024-01-03T04:35:09.006Z,-4.03
2024-01-03T04:37:37.471Z,-4.04
2024-01-03T04:40:07.658Z,-4.05
2024-01-03T04:42:36.365Z,-4.03
2024-01-03T04:45:05.598Z,-4.03
2024-01-03T04:47:35.805Z,-4.03
2024-01-03T04:50:04.946Z,-4.11
2024-01-03T04:52:34.021Z,-4.23
2024-01-03T04:55:02.875Z,-4.30
2024-01-03T04:57:36.309Z,-4.31
2024-01-03T05:00:05.711Z,-4.31
2024-01-03T05:02:36.059Z,-4.32
2024-01-03T05:05:05.463Z,-4.33
2024-01-03T05:07:35.421Z,-4.40
2024-01-03T05:10:07.133Z,-4.40
2024-01-03T05:12:37.465Z,-4.37
2024-01-03T05:15:08.939Z,-4.37
2024-01-03T05:17:37.739Z,-4.40
2024-01-03T05:20:08.646Z,-4.41
2024-01-03T05:22:37.318Z,-4.41
2024-01-03T05:25:07.219Z,-4.42
2024-01-03T05:27:35.814Z,-4.47
2024-01-03T05:30:05.416Z,-4.48
2024-01-03T05:32:34.199Z,-4.49
2024-01-03T05:35:02.800Z,-4.50
2024-01-03T05:37:31.673Z,-4.51
2024-01-03T05:40:00.236Z,-4.49
2024-01-03T05:42:28.865Z,-4.47
2024-01-03T05:44:57.381Z,-4.45
2024-01-03T05:47:26.058Z,-4.40
2024-01-03T05:49:54.650Z,-4.37
2024-01-03T05:52:23.021Z,-4.35
2024-01-03T05:54:51.345Z,-4.33
2024-01-03T05:57:19.703Z,-4.31
2024-01-03T05:59:48.228Z,-4.26
2024-01-03T06:02:16.886Z,-4.23
2024-01-03T06:04:46.998Z,-4.21
2024-01-03T06:07:15.537Z,-4.21
2024-01-03T06:09:44.922Z,-4.20
2024-01-03T06:12:15.547Z,-4.20
2024-01-03T06:14:44.034Z,-4.25
2024-01-03T06:17:12.737Z,-4.29
2024-01-03T06:19:41.236Z,-4.28
2024-01-03T06:22:09.644Z,-4.27
2024-01-03T06:24:38.269Z,-4.31
2024-01-03T06:27:06.915Z,-4.33
2024-01-03T06:29:38.011Z,-4.33
2024-01-03T06:32:06.353Z,-4.29
2024-01-03T06:34:34.833Z,-4.28
2024-01-03T06:37:03.601Z,-4.21
2024-01-03T06:39:32.351Z,-4.13
2024-01-03T06:42:01.708Z,-4.15
2024-01-03T06:44:30.195Z,-4.16
2024-01-03T06:46:58.497Z,-4.16
2024-01-03T06:49:27.704Z,-4.15
2024-01-03T06:51:58.331Z,-4.13
2024-01-03T06:54:27.436Z,-4.13
2024-01-03T06:56:55.869Z,-4.14
2024-01-03T06:59:24.734Z,-4.09
2024-01-03T07:01:53.374Z,-4.08
2024-01-03T07:04:26.420Z,-4.11
2024-01-03T07:06:53.285Z,-4.09
2024-01-03T07:09:21.592Z,-4.05
2024-01-03T07:11:49.857Z,-4.04
2024-01-03T07:14:18.366Z,-4.02
2024-01-03T07:16:49.929Z,-4.00
2024-01-03T07:19:17.366Z,-3.97
2024-01-03T07:21:45.689Z,-3.95
2024-01-03T07:24:14.028Z,-3.98
2024-01-03T07:26:42.619Z,-4.03
2024-01-03T07:29:11.365Z,-4.03
2024-01-03T07:31:39.763Z,-4.01
2024-01-03T07:34:08.364Z,-3.96
2024-01-03T07:36:37.138Z,-3.88
2024-01-03T07:39:06.650Z,-3.83
2024-01-03T07:41:36.687Z,-3.81
2024-01-03T07:44:05.918Z,-3.76
2024-01-03T07:46:34.220Z,-3.68
2024-01-03T07:49:02.894Z,-3.69
2024-01-03T07:51:34.054Z,-3.65
2024-01-03T07:54:03.203Z,-3.62
2024-01-03T07:56:32.357Z,-3.62
2024-01-03T07:59:00.990Z,-3.62
2024-01-03T08:01:29.875Z,-3.61
2024-01-03T08:03:58.716Z,-3.58
2024-01-03T08:06:27.296Z,-3.58
2024-01-03T08:08:56.148Z,-3.56
2024-01-03T08:11:24.790Z,-3.56
2024-01-03T08:13:53.155Z,-3.55
2024-01-03T08:16:21.510Z,-3.53
2024-01-03T08:18:49.974Z,-3.47
2024-01-03T08:21:20.514Z,-3.46
2024-01-03T08:23:49.459Z,-3.41
2024-01-03T08:26:20.061Z,-3.39
2024-01-03T08:28:48.660Z,-3.35
2024-01-03T08:31:18.274Z,-3.30
2024-01-03T08:33:47.110Z,-3.24
2024-01-03T08:36:17.825Z,-3.18
2024-01-03T08:38:48.242Z,-3.14
2024-01-03T08:41:20.200Z,-3.12
2024-01-03T08:43:48.716Z,-3.11
2024-01-03T08:46:17.618Z,-3.12
2024-01-03T08:48:46.430Z,-3.12
2024-01-03T08:51:17.111Z,-3.12
2024-01-03T08:53:45.843Z,-3.09
2024-01-03T08:56:20.235Z,-3.08
2024-01-03T08:58:50.646Z,-3.07
2024-01-03T09:01:20.019Z,-3.08
2024-01-03T09:03:48.554Z,-2.97
2024-01-03T09:06:24.174Z,-2.84
2024-01-03T09:08:56.202Z,-2.78
2024-01-03T09:11:27.365Z,-2.77
2024-01-03T09:13:57.761Z,-2.76
2024-01-03T09:16:30.946Z,-2.79
2024-01-03T09:18:59.898Z,-2.88
2024-01-03T09:21:28.551Z,-2.87
2024-01-03T09:23:56.973Z,-2.83
2024-01-03T09:26:25.663Z,-2.77
2024-01-03T09:28:54.076Z,-2.76
2024-01-03T09:31:22.620Z,-2.74
2024-01-03T09:33:51.388Z,-2.69
2024-01-03T09:36:24.383Z,-2.64
2024-01-03T09:38:52.458Z,-2.63
2024-01-03T09:41:21.153Z,-2.52
2024-01-03T09:43:52.703Z,-2.51
2024-01-03T09:46:21.961Z,-2.57
2024-01-03T09:48:51.472Z,-2.64
2024-01-03T09:51:22.125Z,-2.63
2024-01-03T09:53:52.506Z,-2.59
2024-01-03T09:56:21.170Z,-2.58
2024-01-03T09:58:49.616Z,-2.58
2024-01-03T10:01:18.310Z,-2.61
2024-01-03T10:03:46.963Z,-2.57
2024-01-03T10:06:18.835Z,-2.57
2024-01-03T10:09:04.596Z,-2.53
2024-01-03T10:11:34.427Z,-2.49
2024-01-03T10:14:21.765Z,-2.49
2024-01-03T10:16:50.208Z,-2.47
2024-01-03T10:19:20.385Z,-2.49
2024-01-03T10:21:54.267Z,-2.44
2024-01-03T10:24:25.313Z,-2.43
2024-01-03T10:26:54.227Z,-2.40
2024-01-03T10:29:23.914Z,-2.34
2024-01-03T10:31:53.066Z,-2.36
2024-01-03T10:34:26.273Z,-2.36
2024-01-03T10:36:55.009Z,-2.34
2024-01-03T10:39:26.228Z,-2.31
2024-01-03T10:41:55.613Z,-2.29
2024-01-03T10:44:24.535Z,-2.30
2024-01-03T10:46:54.858Z,-2.30
2024-01-03T10:49:23.533Z,-2.31
2024-01-03T10:52:02.453Z,-2.34
2024-01-03T10:54:36.744Z,-2.34
2024-01-03T10:57:05.763Z,-2.35
2024-01-03T10:59:39.548Z,-2.33
2024-01-03T11:02:25.787Z,-2.35
2024-01-03T11:05:03.034Z,-2.33
2024-01-03T11:07:36.684Z,-2.34
2024-01-03T11:10:07.629Z,-2.30
2024-01-03T11:12:36.399Z,-2.26
2024-01-03T11:15:33.984Z,-2.27
2024-01-03T11:17:55.148Z,-2.26
2024-01-03T11:20:34.457Z,-2.30
2024-01-03T11:23:05.165Z,-2.33
2024-01-03T11:25:50.112Z,-2.30
2024-01-03T11:28:47.823Z,-2.33
2024-01-03T11:31:20.191Z,-2.30
2024-01-03T11:33:48.815Z,-2.29
2024-01-03T11:36:42.337Z,-2.31
2024-01-03T11:39:31.652Z,-2.30
2024-01-03T11:42:00.325Z,-2.27
2024-01-03T11:44:30.085Z,-2.24
2024-01-03T11:47:05.014Z,-2.24
2024-01-03T11:49:34.097Z,-2.21
2024-01-03T11:52:05.169Z,-2.19
2024-01-03T11:54:34.643Z,-2.20
2024-01-03T11:57:09.689Z,-2.24
2024-01-03T11:59:38.576Z,-2.29
2024-01-03T12:02:08.613Z,-2.33
2024-01-03T12:04:37.083Z,-2.31
2024-01-03T12:07:05.813Z,-2.36
2024-01-03T12:09:34.339Z,-2.43
2024-01-03T12:12:03.167Z,-2.45
2024-01-03T12:14:32.053Z,-2.46
2024-01-03T12:17:00.597Z,-2.50
2024-01-03T12:19:31.956Z,-2.54
2024-01-03T12:22:03.461Z,-2.52
2024-01-03T12:24:43.993Z,-2.45
2024-01-03T12:27:23.620Z,-2.41
2024-01-03T12:29:56.235Z,-2.38
2024-01-03T12:32:25.605Z,-2.45
2024-01-03T12:34:59.655Z,-2.50
2024-01-03T12:37:29.532Z,-2.50
2024-01-03T12:39:58.536Z,-2.48
2024-01-03T12:42:35.613Z,-2.51
2024-01-03T12:44:57.493Z,-2.51
2024-01-03T12:47:26.136Z,-2.52
2024-01-03T12:49:56.397Z,-2.50
2024-01-03T12:52:30.173Z,-2.45
2024-01-03T12:54:58.661Z,-2.44
2024-01-03T12:57:27.225Z,-2.44
2024-01-03T12:59:56.595Z,-2.43
2024-01-03T13:02:25.257Z,-2.38
2024-01-03T13:04:53.862Z,-2.37
2024-01-03T13:07:22.764Z,-2.35
2024-01-03T13:09:51.276Z,-2.34
2024-01-03T13:12:21.853Z,-2.32
2024-01-03T13:14:51.869Z,-2.32
2024-01-03T13:17:22.572Z,-2.34
2024-01-03T13:19:52.147Z,-2.40
2024-01-03T13:22:22.165Z,-2.45
2024-01-03T13:24:50.788Z,-2.45
2024-01-03T13:27:19.635Z,-2.48
2024-01-03T13:29:48.171Z,-2.52
2024-01-03T13:32:16.846Z,-2.53
2024-01-03T13:34:45.361Z,-2.55
2024-01-03T13:37:14.270Z,-2.55
2024-01-03T13:39:43.789Z,-2.56
2024-01-03T13:42:13.741Z,-2.56
2024-01-03T13:44:43.421Z,-2.57
2024-01-03T13:47:12.380Z,-2.52
2024-01-03T13:49:40.947Z,-2.47
2024-01-03T13:52:09.694Z,-2.45
2024-01-03T13:54:39.266Z,-2.44
2024-01-03T13:57:07.834Z,-2.47
2024-01-03T13:59:37.634Z,-2.48
2024-01-03T14:02:07.343Z,-2.49
2024-01-03T14:04:41.690Z,-2.50
2024-01-03T14:07:10.514Z,-2.50
2024-01-03T14:09:41.477Z,-2.52
2024-01-03T14:12:10.085Z,-2.56
2024-01-03T14:14:38.708Z,-2.56
2024-01-03T14:17:09.884Z,-2.54
2024-01-03T14:19:38.822Z,-2.56
2024-01-03T14:22:07.417Z,-2.57
2024-01-03T14:24:36.250Z,-2.58
2024-01-03T14:27:05.290Z,-2.57
2024-01-03T14:29:36.847Z,-2.58
2024-01-03T14:32:09.120Z,-2.58
2024-01-03T14:34:37.773Z,-2.60
2024-01-03T14:37:08.467Z,-2.59
2024-01-03T14:39:39.728Z,-2.63
2024-01-03T14:42:08.611Z,-2.65
2024-01-03T14:44:38.549Z,-2.65
2024-01-03T14:47:08.167Z,-2.63
2024-01-03T14:49:38.680Z,-2.63
2024-01-03T14:52:08.830Z,-2.64
2024-01-03T14:54:38.603Z,-2.66
2024-01-03T14:57:10.629Z,-2.63
2024-01-03T14:59:42.374Z,-2.65
2024-01-03T15:02:11.093Z,-2.68
2024-01-03T15:04:40.017Z,-2.70
2024-01-03T15:07:08.708Z,-2.67
2024-01-03T15:09:39.365Z,-2.67
2024-01-03T15:12:08.090Z,-2.69
2024-01-03T15:14:38.937Z,-2.66
2024-01-03T15:17:09.404Z,-2.66
2024-01-03T15:19:38.189Z,-2.65
2024-01-03T15:22:20.317Z,-2.67
2024-01-03T15:24:48.989Z,-2.67
2024-01-03T15:27:18.314Z,-2.65
2024-01-03T15:29:46.923Z,-2.67
2024-01-03T15:32:15.595Z,-2.68
2024-01-03T15:34:44.731Z,-2.68
2024-01-03T15:37:14.979Z,-2.64
2024-01-03T15:39:43.815Z,-2.60
2024-01-03T15:42:13.038Z,-2.59
2024-01-03T15:44:42.113Z,-2.62
2024-01-03T15:47:10.817Z,-2.67
2024-01-03T15:49:40.333Z,-2.69
2024-01-03T15:52:09.828Z,-2.65
2024-01-03T15:54:46.143Z,-2.65
2024-01-03T15:57:10.322Z,-2.65
2024-01-03T15:59:39.650Z,-2.65
2024-01-03T16:02:08.336Z,-2.65
2024-01-03T16:04:37.107Z,-2.71
2024-01-03T16:07:05.863Z,-2.76
2024-01-03T16:09:35.804Z,-2.79
2024-01-03T16:12:06.837Z,-2.79
2024-01-03T16:14:39.491Z,-2.79
2024-01-03T16:17:09.093Z,-2.78
2024-01-03T16:19:38.039Z,-2.75
2024-01-03T16:22:06.874Z,-2.73
2024-01-03T16:24:35.637Z,-2.73
2024-01-03T16:27:06.602Z,-2.75
2024-01-03T16:29:36.097Z,-2.80
2024-01-03T16:32:10.557Z,-2.72
2024-01-03T16:34:39.331Z,-2.74
2024-01-03T16:37:08.747Z,-2.76
2024-01-03T16:39:38.112Z,-2.78
2024-01-03T16:42:08.732Z,-2.76
2024-01-03T16:44:37.993Z,-2.77
2024-01-03T16:47:06.706Z,-2.76
2024-01-03T16:49:35.397Z,-2.74
2024-01-03T16:52:04.539Z,-2.73
2024-01-03T16:54:34.584Z,-2.75
2024-01-03T16:57:04.721Z,-2.76
2024-01-03T16:59:33.388Z,-2.73
2024-01-03T17:02:02.817Z,-2.73
2024-01-03T17:04:31.908Z,-2.70
2024-01-03T17:07:00.531Z,-2.69
2024-01-03T17:09:29.490Z,-2.72
2024-01-03T17:11:58.074Z,-2.77
2024-01-03T17:14:26.712Z,-2.77
2024-01-03T17:16:55.573Z,-2.77
2024-01-03T17:19:26.243Z,-2.79
2024-01-03T17:21:55.594Z,-2.78
2024-01-03T17:24:25.945Z,-2.78
2024-01-03T17:26:55.369Z,-2.80
2024-01-03T17:29:23.976Z,-2.77
2024-01-03T17:31:52.434Z,-2.78
2024-01-03T17:34:21.171Z,-2.76
2024-01-03T17:36:49.928Z,-2.70
2024-01-03T17:39:18.525Z,-2.70
2024-01-03T17:41:49.017Z,-2.68
2024-01-03T17:44:17.599Z,-2.65
2024-01-03T17:46:46.493Z,-2.63
2024-01-03T17:49:18.988Z,-2.60
2024-01-03T17:51:49.076Z,-2.63
2024-01-03T17:54:17.761Z,-2.67
2024-01-03T17:56:46.603Z,-2.68
2024-01-03T17:59:16.464Z,-2.65
2024-01-03T18:01:48.557Z,-2.63
2024-01-03T18:04:17.342Z,-2.61
2024-01-03T18:06:46.054Z,-2.57
2024-01-03T18:09:14.957Z,-2.58
2024-01-03T18:11:43.815Z,-2.57
2024-01-03T18:14:12.322Z,-2.54
2024-01-03T18:16:40.899Z,-2.54
2024-01-03T18:19:10.307Z,-2.51
2024-01-03T18:21:39.028Z,-2.52
2024-01-03T18:24:09.465Z,-2.51
2024-01-03T18:26:38.307Z,-2.52
2024-01-03T18:29:06.992Z,-2.55
2024-01-03T18:31:36.005Z,-2.59
2024-01-03T18:34:04.702Z,-2.59
2024-01-03T18:36:39.501Z,-2.61
2024-01-03T18:39:11.921Z,-2.57
2024-01-03T18:41:45.553Z,-2.52
2024-01-03T18:44:16.480Z,-2.47
2024-01-03T18:46:46.857Z,-2.45
2024-01-03T18:49:15.579Z,-2.45
2024-01-03T18:51:44.898Z,-2.47
2024-01-03T18:54:13.631Z,-2.48
2024-01-03T18:56:43.496Z,-2.48
2024-01-03T18:59:12.612Z,-2.46
2024-01-03T19:01:41.219Z,-2.45
2024-01-03T19:04:11.697Z,-2.43
2024-01-03T19:06:40.359Z,-2.40
2024-01-03T19:09:09.048Z,-2.37
2024-01-03T19:11:37.953Z,-2.37
2024-01-03T19:14:06.732Z,-2.36
2024-01-03T19:16:35.338Z,-2.33
2024-01-03T19:19:07.541Z,-2.27
2024-01-03T19:21:36.704Z,-2.22
2024-01-03T19:24:06.167Z,-2.19
2024-01-03T19:26:34.806Z,-2.17
2024-01-03T19:29:03.408Z,-2.16
2024-01-03T19:31:32.077Z,-2.13
2024-01-03T19:34:01.208Z,-2.11
2024-01-03T19:36:30.880Z,-2.10
2024-01-03T19:38:59.408Z,-2.10
2024-01-03T19:41:28.004Z,-2.09
2024-01-03T19:43:56.564Z,-2.10
2024-01-03T19:46:25.196Z,-2.09
2024-01-03T19:48:54.090Z,-2.05
2024-01-03T19:51:23.150Z,-2.02
2024-01-03T19:53:51.887Z,-1.96
2024-01-03T19:56:20.436Z,-1.90
2024-01-03T19:58:49.053Z,-1.88
2024-01-03T20:01:17.639Z,-1.90
2024-01-03T20:03:46.345Z,-1.89
2024-01-03T20:06:25.384Z,-1.87
2024-01-03T20:08:54.320Z,-1.81
2024-01-03T20:11:23.334Z,-1.78
2024-01-03T20:13:52.139Z,-1.78
2024-01-03T20:16:21.288Z,-1.78
2024-01-03T20:18:51.265Z,-1.79
2024-01-03T20:21:20.296Z,-1.80
2024-01-03T20:23:48.833Z,-1.83
2024-01-03T20:26:18.428Z,-1.82
2024-01-03T20:28:48.255Z,-1.77
2024-01-03T20:31:19.159Z,-1.74
2024-01-03T20:33:48.007Z,-1.77
2024-01-03T20:36:20.424Z,-1.79
2024-01-03T20:38:48.855Z,-1.74
2024-01-03T20:41:22.320Z,-1.71
2024-01-03T20:43:51.204Z,-1.68
2024-01-03T20:46:20.975Z,-1.63
2024-01-03T20:48:49.795Z,-1.60
2024-01-03T20:51:19.224Z,-1.56
2024-01-03T20:53:47.943Z,-1.54
2024-01-03T20:56:16.822Z,-1.54
2024-01-03T20:58:45.544Z,-1.50
2024-01-03T21:01:14.379Z,-1.47
2024-01-03T21:03:43.646Z,-1.44
2024-01-03T21:06:13.094Z,-1.43
2024-01-03T21:08:41.701Z,-1.40
2024-01-03T21:11:10.039Z,-1.38
2024-01-03T21:13:44.793Z,-1.38
2024-01-03T21:16:18.128Z,-1.36
2024-01-03T21:18:46.981Z,-1.35
2024-01-03T21:21:15.830Z,-1.33
2024-01-03T21:23:44.187Z,-1.31
2024-01-03T21:26:15.190Z,-1.29
2024-01-03T21:28:43.661Z,-1.27
2024-01-03T21:31:12.161Z,-1.23
2024-01-03T21:33:40.479Z,-1.19
2024-01-03T21:36:10.761Z,-1.19
2024-01-03T21:38:41.966Z,-1.17
2024-01-03T21:41:13.313Z,-1.14
2024-01-03T21:43:41.870Z,-1.11
2024-01-03T21:46:10.254Z,-1.09
2024-01-03T21:48:38.881Z,-1.07
2024-01-03T21:51:07.786Z,-1.06
2024-01-03T21:53:36.221Z,-1.03
2024-01-03T21:56:04.872Z,-1.00
2024-01-03T21:58:33.270Z,-0.99
2024-01-03T22:01:02.741Z,-1.00
2024-01-03T22:03:31.685Z,-1.00
2024-01-03T22:06:00.408Z,-0.99
2024-01-03T22:08:28.837Z,-0.99
2024-01-03T22:10:57.313Z,-0.98
2024-01-03T22:13:25.736Z,-0.98
2024-01-03T22:15:54.383Z,-0.98
2024-01-03T22:18:23.234Z,-0.98
2024-01-03T22:20:51.925Z,-0.96
2024-01-03T22:23:20.341Z,-0.96
2024-01-03T22:25:50.701Z,-0.96
2024-01-03T22:28:21.699Z,-0.94
2024-01-03T22:30:50.151Z,-0.90
2024-01-03T22:33:19.888Z,-0.85
2024-01-03T22:35:48.486Z,-0.83
2024-01-03T22:38:16.956Z,-0.82
2024-01-03T22:40:45.350Z,-0.79
2024-01-03T22:43:13.887Z,-0.77
2024-01-03T22:45:42.197Z,-0.77
2024-01-03T22:48:10.785Z,-0.77
2024-01-03T22:50:39.522Z,-0.75
2024-01-03T22:53:08.497Z,-0.75
2024-01-03T22:55:36.990Z,-0.74
2024-01-03T22:58:05.613Z,-0.70
2024-01-03T23:00:34.150Z,-0.69
2024-01-03T23:03:02.600Z,-0.66
2024-01-03T23:05:31.326Z,-0.60
2024-01-03T23:07:59.891Z,-0.57
2024-01-03T23:10:28.394Z,-0.56
2024-01-03T23:12:57.407Z,-0.55
2024-01-03T23:15:26.910Z,-0.53
2024-01-03T23:17:55.319Z,-0.50
2024-01-03T23:20:24.343Z,-0.48
2024-01-03T23:23:01.307Z,-0.46
2024-01-03T23:25:24.196Z,-0.46
2024-01-03T23:27:52.578Z,-0.44
2024-01-03T23:30:22.513Z,-0.43
2024-01-03T23:32:51.000Z,-0.41
2024-01-03T23:35:20.345Z,-0.40
2024-01-03T23:37:48.612Z,-0.39
2024-01-03T23:40:16.960Z,-0.39
2024-01-03T23:42:45.365Z,-0.42
2024-01-03T23:45:14.015Z,-0.40
2024-01-03T23:47:42.711Z,-0.40
2024-01-03T23:50:11.384Z,-0.37
2024-01-03T23:52:39.716Z,-0.35
2024-01-03T23:55:09.605Z,-0.34
2024-01-03T23:57:38.156Z,-0.33
